Jefferson Park, New York
Current Conditions -  °F | °C
As of 4:56 AM on Monday 26 Jan 2015 (Local Time) from KART Reporting Station
Clear Clear  
Wind Chill:   Ceiling: Unl
Heat Index:   Visibility: 10mi
Dew Point: -8°   Wind: 3mph
Humidity: 69%   Direction: 70°ENE
Pressure: 30.09"   Gusts: NA
Location:  43.8534°N, 76.251°W
Report Text: KART 260956Z AUTO 07003KT 10SM CLR M18/M22 A3009 RMK AO2 SLP202 T11781222
Loading
Personal Weather Stations






























Interactive Weather Map New forecast layout! Learn more

10-Day Weather Forecast

Advertisements
Track Severe Weather on mobile